createdAt,value
2018-05-27T00:00:49.905Z,3.20
2018-05-27T00:03:18.124Z,3.53
2018-05-27T00:05:46.341Z,3.37
2018-05-27T00:08:13.795Z,3.40
2018-05-27T00:10:41.264Z,3.63
2018-05-27T00:13:08.721Z,3.67
2018-05-27T00:15:36.179Z,3.80
2018-05-27T00:18:03.641Z,3.37
2018-05-27T00:20:31.084Z,3.50
2018-05-27T00:22:58.553Z,3.50
2018-05-27T00:25:26.008Z,3.10
2018-05-27T00:27:53.469Z,3.40
2018-05-27T00:30:20.933Z,3.60
2018-05-27T00:32:49.144Z,3.30
2018-05-27T00:35:16.609Z,3.50
2018-05-27T00:37:44.824Z,3.17
2018-05-27T00:40:12.292Z,3.33
2018-05-27T00:42:39.746Z,3.57
2018-05-27T00:45:07.205Z,3.40
2018-05-27T00:47:34.660Z,3.30
2018-05-27T00:50:02.888Z,3.80
2018-05-27T00:52:31.112Z,3.67
2018-05-27T00:54:58.559Z,2.80
2018-05-27T00:57:26.027Z,3.30
2018-05-27T00:59:53.476Z,3.50
2018-05-27T01:02:20.932Z,3.43
2018-05-27T01:04:48.400Z,3.00
2018-05-27T01:07:15.844Z,3.23
2018-05-27T01:09:43.328Z,2.90
2018-05-27T01:12:10.776Z,3.20
2018-05-27T01:14:38.254Z,3.30
2018-05-27T01:17:05.714Z,3.40
2018-05-27T01:19:33.163Z,3.20
2018-05-27T01:22:00.624Z,3.20
2018-05-27T01:24:28.080Z,3.43
2018-05-27T01:26:55.536Z,3.10
2018-05-27T01:29:22.996Z,3.20
2018-05-27T01:31:51.211Z,3.30
2018-05-27T01:34:18.668Z,3.20
2018-05-27T01:36:46.128Z,3.40
2018-05-27T01:39:13.576Z,3.50
2018-05-27T01:41:41.800Z,2.90
2018-05-27T01:44:09.256Z,3.43
2018-05-27T01:46:36.713Z,3.23
2018-05-27T01:49:04.932Z,2.90
2018-05-27T01:51:33.165Z,2.80
2018-05-27T01:54:00.620Z,3.57
2018-05-27T01:56:28.075Z,3.20
2018-05-27T01:58:55.537Z,3.50
2018-05-27T02:01:22.998Z,3.67
2018-05-27T02:03:50.453Z,3.30
2018-05-27T02:06:17.915Z,3.10
2018-05-27T02:08:45.357Z,3.40
2018-05-27T02:11:12.823Z,3.07
2018-05-27T02:13:40.279Z,3.37
2018-05-27T02:16:07.736Z,3.37
2018-05-27T02:18:35.183Z,2.70
2018-05-27T02:21:02.652Z,2.97
2018-05-27T02:23:30.109Z,2.97
2018-05-27T02:25:57.568Z,3.37
2018-05-27T02:28:25.024Z,3.50
2018-05-27T02:30:53.257Z,3.07
2018-05-27T02:33:21.476Z,3.30
2018-05-27T02:35:48.919Z,3.20
2018-05-27T02:38:16.383Z,3.23
2018-05-27T02:40:43.848Z,3.33
2018-05-27T02:43:11.309Z,3.27
2018-05-27T02:45:39.538Z,3.40
2018-05-27T02:48:07.747Z,3.33
2018-05-27T02:50:35.221Z,3.30
2018-05-27T02:53:02.672Z,3.33
2018-05-27T02:55:30.133Z,3.10
2018-05-27T02:57:57.589Z,3.23
2018-05-27T03:00:25.054Z,3.20
2018-05-27T03:02:52.502Z,3.60
2018-05-27T03:05:19.964Z,3.50
2018-05-27T03:07:47.404Z,3.63
2018-05-27T03:10:15.645Z,2.80
2018-05-27T03:12:43.098Z,3.43
2018-05-27T03:15:11.332Z,3.03
2018-05-27T03:17:38.781Z,3.60
2018-05-27T03:20:06.228Z,3.07
2018-05-27T03:22:34.230Z,3.17
2018-05-27T03:25:01.717Z,3.23
2018-05-27T03:27:29.943Z,3.67
2018-05-27T03:29:57.389Z,3.50
2018-05-27T03:32:24.863Z,2.97
2018-05-27T03:34:52.317Z,3.40
2018-05-27T03:37:19.781Z,3.10
2018-05-27T03:39:47.233Z,3.30
2018-05-27T03:42:14.696Z,3.00
2018-05-27T03:44:42.913Z,3.40
2018-05-27T03:47:11.137Z,3.47
2018-05-27T03:49:38.583Z,3.53
2018-05-27T03:52:06.046Z,3.17
2018-05-27T03:54:33.496Z,3.50
2018-05-27T03:57:01.738Z,3.10
2018-05-27T03:59:29.200Z,2.90
2018-05-27T04:01:57.427Z,3.57
2018-05-27T04:04:36.745Z,3.17
2018-05-27T04:07:16.993Z,3.00
2018-05-27T04:09:44.431Z,3.00
2018-05-27T04:12:11.892Z,3.10
2018-05-27T04:14:40.164Z,3.27
2018-05-27T04:17:07.612Z,3.57
2018-05-27T04:19:35.074Z,3.13
2018-05-27T04:22:03.308Z,3.37
2018-05-27T04:24:30.756Z,3.30
2018-05-27T04:26:58.226Z,3.30
2018-05-27T04:29:25.664Z,3.13
2018-05-27T04:31:53.126Z,3.00
2018-05-27T04:34:20.567Z,2.70
2018-05-27T04:36:48.035Z,3.13
2018-05-27T04:39:15.484Z,3.23
2018-05-27T04:41:43.730Z,3.13
2018-05-27T04:44:11.937Z,2.97
2018-05-27T04:46:39.394Z,3.30
2018-05-27T04:49:06.849Z,3.20
2018-05-27T04:51:34.310Z,3.13
2018-05-27T04:54:01.780Z,3.30
2018-05-27T04:56:29.231Z,3.40
2018-05-27T04:58:56.690Z,3.30
2018-05-27T05:01:24.138Z,2.90
2018-05-27T05:03:51.601Z,2.93
2018-05-27T05:06:19.053Z,3.30
2018-05-27T05:08:46.516Z,3.00
2018-05-27T05:11:13.977Z,3.53
2018-05-27T05:13:41.438Z,3.50
2018-05-27T05:16:08.896Z,3.33
2018-05-27T05:18:36.353Z,3.20
2018-05-27T05:21:03.804Z,3.37
2018-05-27T05:23:31.250Z,3.40
2018-05-27T05:25:58.708Z,3.53
2018-05-27T05:28:26.171Z,3.30
2018-05-27T05:30:53.641Z,3.37
2018-05-27T05:33:21.868Z,3.20
2018-05-27T05:35:50.076Z,3.67
2018-05-27T05:38:17.544Z,3.40
2018-05-27T05:40:44.992Z,3.23
2018-05-27T05:43:12.449Z,3.47
2018-05-27T05:45:39.912Z,3.20
2018-05-27T05:48:07.375Z,3.40
2018-05-27T05:50:35.593Z,3.30
2018-05-27T05:53:03.056Z,3.60
2018-05-27T05:55:31.282Z,3.53
2018-05-27T05:57:58.741Z,3.10
2018-05-27T06:00:26.191Z,3.27
2018-05-27T06:02:53.658Z,3.60
2018-05-27T06:05:21.113Z,3.30
2018-05-27T06:07:48.569Z,3.27
2018-05-27T06:10:16.012Z,3.50
2018-05-27T06:12:43.485Z,3.57
2018-05-27T06:15:11.728Z,3.10
2018-05-27T06:17:39.945Z,3.40
2018-05-27T06:20:07.397Z,3.40
2018-05-27T06:22:34.848Z,3.70
2018-05-27T06:25:03.080Z,3.77
2018-05-27T06:27:31.313Z,3.70
2018-05-27T06:29:58.807Z,3.53
2018-05-27T06:32:26.267Z,3.20
2018-05-27T06:34:54.491Z,3.30
2018-05-27T06:37:21.950Z,3.10
2018-05-27T06:39:50.189Z,3.17
2018-05-27T06:42:17.637Z,3.00
2018-05-27T06:44:45.856Z,3.70
2018-05-27T06:47:13.332Z,2.97
2018-05-27T06:49:40.780Z,3.40
2018-05-27T06:52:08.244Z,3.23
2018-05-27T06:54:35.720Z,3.33
2018-05-27T06:57:03.173Z,3.57
2018-05-27T06:59:30.628Z,3.40
2018-05-27T07:01:58.852Z,3.70
2018-05-27T07:04:27.136Z,3.40
2018-05-27T07:06:54.532Z,3.50
2018-05-27T07:09:22.004Z,3.23
2018-05-27T07:11:49.459Z,3.20
2018-05-27T07:14:16.930Z,3.60
2018-05-27T07:16:44.389Z,3.10
2018-05-27T07:19:11.852Z,3.13
2018-05-27T07:21:39.309Z,3.50
2018-05-27T07:24:06.769Z,3.10
2018-05-27T07:26:34.220Z,3.43
2018-05-27T07:29:01.680Z,3.23
2018-05-27T07:31:29.120Z,3.30
2018-05-27T07:33:56.586Z,2.87
2018-05-27T07:36:24.029Z,3.53
2018-05-27T07:38:51.488Z,2.83
2018-05-27T07:41:18.932Z,3.23
2018-05-27T07:43:46.387Z,3.30
2018-05-27T07:46:14.627Z,3.43
2018-05-27T07:48:42.075Z,3.13
2018-05-27T07:51:10.301Z,3.37
2018-05-27T07:53:37.762Z,3.00
2018-05-27T07:56:05.204Z,3.40
2018-05-27T07:58:32.715Z,3.20
2018-05-27T08:01:00.115Z,2.93
2018-05-27T08:03:27.585Z,3.10
2018-05-27T08:05:55.041Z,3.10
2018-05-27T08:08:22.495Z,3.00
2018-05-27T08:10:49.956Z,3.27
2018-05-27T08:13:17.413Z,3.17
2018-05-27T08:15:44.865Z,2.93
2018-05-27T08:18:12.325Z,2.93
2018-05-27T08:20:39.777Z,3.37
2018-05-27T08:23:07.232Z,3.20
2018-05-27T08:25:34.684Z,3.10
2018-05-27T08:28:02.141Z,2.97
2018-05-27T08:30:29.605Z,3.00
2018-05-27T08:32:57.054Z,3.40
2018-05-27T08:35:24.511Z,3.30
2018-05-27T08:37:51.976Z,3.20
2018-05-27T08:40:19.438Z,2.67
2018-05-27T08:42:46.884Z,2.80
2018-05-27T08:45:14.350Z,2.97
2018-05-27T08:47:41.808Z,2.97
2018-05-27T08:50:09.269Z,3.10
2018-05-27T08:52:36.724Z,2.87
2018-05-27T08:55:04.183Z,3.17
2018-05-27T08:57:31.644Z,3.10
2018-05-27T08:59:59.091Z,3.00
2018-05-27T09:02:26.544Z,2.90
2018-05-27T09:04:54.004Z,2.87
2018-05-27T09:07:21.458Z,3.00
2018-05-27T09:09:48.916Z,2.70
2018-05-27T09:12:16.361Z,3.10
2018-05-27T09:14:43.808Z,2.67
2018-05-27T09:17:11.259Z,2.63
2018-05-27T09:19:39.493Z,2.80
2018-05-27T09:22:06.940Z,2.80
2018-05-27T09:24:34.403Z,2.80
2018-05-27T09:27:01.864Z,2.63
2018-05-27T09:29:29.320Z,2.70
2018-05-27T09:31:56.768Z,2.80
2018-05-27T09:34:24.271Z,2.70
2018-05-27T09:36:51.717Z,2.80
2018-05-27T09:39:19.207Z,2.50
2018-05-27T09:41:46.645Z,2.60
2018-05-27T09:44:14.863Z,2.60
2018-05-27T09:46:42.315Z,2.50
2018-05-27T09:49:09.771Z,2.60
2018-05-27T09:51:37.209Z,2.50
2018-05-27T09:54:04.672Z,2.47
2018-05-27T09:56:32.134Z,2.57
2018-05-27T09:58:59.607Z,2.60
2018-05-27T10:01:27.053Z,2.50
2018-05-27T10:03:54.512Z,2.30
2018-05-27T10:06:21.995Z,2.67
2018-05-27T10:08:49.448Z,2.43
2018-05-27T10:11:16.912Z,2.70
2018-05-27T10:13:44.351Z,2.60
2018-05-27T10:16:11.807Z,2.53
2018-05-27T10:18:39.261Z,2.60
2018-05-27T10:21:06.704Z,2.53
2018-05-27T10:23:34.165Z,2.73
2018-05-27T10:26:01.694Z,2.40
2018-05-27T10:28:29.088Z,2.47
2018-05-27T10:30:56.557Z,2.33
2018-05-27T10:33:24.021Z,2.37
2018-05-27T10:35:51.477Z,2.70
2018-05-27T10:38:18.923Z,2.50
2018-05-27T10:40:46.381Z,2.80
2018-05-27T10:43:13.844Z,2.20
2018-05-27T10:45:41.296Z,2.20
2018-05-27T10:48:08.751Z,2.10
2018-05-27T10:50:36.192Z,2.37
2018-05-27T10:53:03.659Z,2.23
2018-05-27T10:55:31.109Z,2.40
2018-05-27T10:57:58.571Z,2.30
2018-05-27T11:00:26.032Z,2.30
2018-05-27T11:02:53.481Z,2.43
2018-05-27T11:05:20.940Z,2.30
2018-05-27T11:07:48.397Z,2.43
2018-05-27T11:10:15.866Z,1.90
2018-05-27T11:12:43.330Z,2.37
2018-05-27T11:15:10.787Z,2.20
2018-05-27T11:17:38.223Z,2.20
2018-05-27T11:20:05.688Z,2.40
2018-05-27T11:22:33.127Z,2.17
2018-05-27T11:25:01.362Z,1.70
2018-05-27T11:27:28.799Z,2.13
2018-05-27T11:29:56.300Z,1.90
2018-05-27T11:32:23.711Z,1.70
2018-05-27T11:34:51.165Z,1.50
2018-05-27T11:37:18.616Z,1.50
2018-05-27T11:39:46.082Z,1.00
2018-05-27T11:42:13.529Z,0.82
2018-05-27T11:44:40.976Z,0.90
2018-05-27T11:47:08.432Z,0.70
2018-05-27T11:49:35.899Z,0.50
2018-05-27T11:52:03.357Z,0.60
2018-05-27T11:54:30.814Z,0.50
2018-05-27T11:56:58.280Z,0.50
2018-05-27T11:59:25.740Z,0.60
2018-05-27T12:01:53.205Z,0.50
2018-05-27T12:04:20.657Z,0.60
2018-05-27T12:06:48.112Z,0.50
2018-05-27T12:09:15.643Z,0.50
2018-05-27T12:11:43.055Z,0.60
2018-05-27T12:14:10.489Z,0.60
2018-05-27T12:16:37.944Z,0.50
2018-05-27T12:19:05.391Z,0.50
2018-05-27T12:21:32.840Z,0.60
2018-05-27T12:24:00.305Z,0.50
2018-05-27T12:26:27.747Z,0.60
2018-05-27T12:28:55.225Z,0.50
2018-05-27T12:31:22.667Z,0.60
2018-05-27T12:33:50.107Z,0.50
2018-05-27T12:36:18.336Z,0.52
2018-05-27T12:38:45.780Z,0.50
2018-05-27T12:41:13.236Z,0.55
2018-05-27T12:43:40.676Z,0.60
2018-05-27T12:46:08.141Z,0.50
2018-05-27T12:48:35.576Z,0.50
2018-05-27T12:51:03.810Z,0.60
2018-05-27T12:53:31.264Z,0.60
2018-05-27T12:55:58.720Z,0.60
2018-05-27T12:58:26.159Z,0.50
2018-05-27T13:00:53.611Z,0.50
2018-05-27T13:03:21.068Z,0.50
2018-05-27T13:05:48.512Z,0.55
2018-05-27T13:08:15.960Z,0.60
2018-05-27T13:10:44.186Z,0.68
2018-05-27T13:13:11.640Z,0.60
2018-05-27T13:15:39.097Z,0.50
2018-05-27T13:18:06.539Z,0.43
2018-05-27T13:20:34.005Z,0.52
2018-05-27T13:23:01.449Z,0.55
2018-05-27T13:25:28.908Z,0.52
2018-05-27T13:27:56.427Z,0.50
2018-05-27T13:30:24.640Z,0.50
2018-05-27T13:32:52.113Z,0.50
2018-05-27T13:35:19.601Z,0.50
2018-05-27T13:37:47.068Z,0.50
2018-05-27T13:40:14.508Z,0.57
2018-05-27T13:42:41.974Z,0.50
2018-05-27T13:45:09.426Z,0.50
2018-05-27T13:47:36.879Z,0.50
2018-05-27T13:50:04.319Z,0.60
2018-05-27T13:52:31.816Z,0.60
2018-05-27T13:54:59.255Z,0.50
2018-05-27T13:57:26.713Z,0.50
2018-05-27T13:59:54.173Z,0.70
2018-05-27T14:02:21.639Z,0.60
2018-05-27T14:04:49.116Z,0.65
2018-05-27T14:07:16.540Z,0.80
2018-05-27T14:09:44.013Z,0.77
2018-05-27T14:12:11.468Z,0.90
2018-05-27T14:14:38.921Z,0.93
2018-05-27T14:17:06.394Z,1.20
2018-05-27T14:19:33.832Z,1.20
2018-05-27T14:22:01.344Z,1.50
2018-05-27T14:24:28.811Z,1.40
2018-05-27T14:26:56.294Z,1.53
2018-05-27T14:29:23.737Z,1.50
2018-05-27T14:31:51.214Z,1.30
2018-05-27T14:34:18.675Z,1.77
2018-05-27T14:36:46.129Z,1.80
2018-05-27T14:39:16.704Z,1.57
2018-05-27T14:41:44.934Z,1.70
2018-05-27T14:44:12.372Z,1.90
2018-05-27T14:46:39.834Z,2.13
2018-05-27T14:49:07.289Z,1.73
2018-05-27T14:51:36.728Z,1.90
2018-05-27T14:54:04.704Z,1.80
2018-05-27T14:56:33.885Z,1.87
2018-05-27T14:59:02.277Z,1.80
2018-05-27T15:01:29.735Z,2.03
2018-05-27T15:03:57.200Z,2.30
2018-05-27T15:06:24.655Z,2.20
2018-05-27T15:08:53.632Z,2.00
2018-05-27T15:11:22.436Z,2.20
2018-05-27T15:13:49.892Z,2.10
2018-05-27T15:16:18.926Z,2.10
2018-05-27T15:18:47.158Z,2.37
2018-05-27T15:21:14.630Z,2.30
2018-05-27T15:23:44.152Z,2.00
2018-05-27T15:26:12.380Z,2.20
2018-05-27T15:28:40.351Z,1.93
2018-05-27T15:31:09.024Z,2.23
2018-05-27T15:33:36.522Z,1.83
2018-05-27T15:36:03.972Z,2.00
2018-05-27T15:38:31.435Z,1.90
2018-05-27T15:40:58.889Z,2.17
2018-05-27T15:43:26.354Z,2.17
2018-05-27T15:45:53.804Z,2.20
2018-05-27T15:48:21.332Z,2.10
2018-05-27T15:50:48.743Z,2.10
2018-05-27T15:53:16.192Z,2.13
2018-05-27T15:55:43.648Z,2.00
2018-05-27T15:58:11.118Z,2.47
2018-05-27T16:00:38.559Z,2.20
2018-05-27T16:03:06.034Z,2.20
2018-05-27T16:05:33.491Z,2.13
2018-05-27T16:08:00.947Z,2.40
2018-05-27T16:10:28.404Z,2.10
2018-05-27T16:12:55.864Z,2.30
2018-05-27T16:15:23.308Z,2.30
2018-05-27T16:17:50.776Z,2.37
2018-05-27T16:20:18.223Z,2.20
2018-05-27T16:22:45.704Z,2.00
2018-05-27T16:25:13.936Z,2.13
2018-05-27T16:27:41.402Z,2.20
2018-05-27T16:30:08.852Z,2.40
2018-05-27T16:32:36.316Z,2.00
2018-05-27T16:35:03.772Z,2.23
2018-05-27T16:37:31.231Z,2.10
2018-05-27T16:39:58.712Z,2.27
2018-05-27T16:42:26.167Z,2.10
2018-05-27T16:44:53.627Z,2.50
2018-05-27T16:47:21.089Z,2.40
2018-05-27T16:49:48.548Z,2.50
2018-05-27T16:52:16.000Z,2.43
2018-05-27T16:54:43.463Z,2.57
2018-05-27T16:57:10.932Z,2.47
2018-05-27T16:59:39.162Z,2.73
2018-05-27T17:02:06.628Z,2.70
2018-05-27T17:04:34.088Z,2.93
2018-05-27T17:07:01.562Z,2.80
2018-05-27T17:09:29.023Z,2.63
2018-05-27T17:11:56.471Z,2.67
2018-05-27T17:14:23.952Z,2.57
2018-05-27T17:16:52.179Z,2.50
2018-05-27T17:19:19.644Z,2.30
2018-05-27T17:21:47.109Z,2.57
2018-05-27T17:24:14.619Z,2.80
2018-05-27T17:26:42.144Z,2.60
2018-05-27T17:29:09.605Z,2.77
2018-05-27T17:31:37.070Z,2.50
2018-05-27T17:34:05.312Z,2.70
2018-05-27T17:36:32.766Z,2.57
2018-05-27T17:39:00.240Z,2.63
2018-05-27T17:41:27.700Z,2.33
2018-05-27T17:43:55.172Z,2.97
2018-05-27T17:46:22.611Z,2.50
2018-05-27T17:48:50.090Z,2.77
2018-05-27T17:51:17.541Z,2.73
2018-05-27T17:53:44.996Z,2.73
2018-05-27T17:56:12.453Z,2.60
2018-05-27T17:58:39.923Z,2.83
2018-05-27T18:01:08.140Z,2.53
2018-05-27T18:03:35.617Z,2.87
2018-05-27T18:06:03.073Z,2.60
2018-05-27T18:08:30.532Z,2.80
2018-05-27T18:10:57.987Z,2.40
2018-05-27T18:13:25.435Z,2.37
2018-05-27T18:15:52.883Z,2.57
2018-05-27T18:18:20.340Z,2.73
2018-05-27T18:20:47.800Z,2.90
2018-05-27T18:23:15.308Z,2.90
2018-05-27T18:25:42.759Z,2.80
2018-05-27T18:28:10.221Z,3.17
2018-05-27T18:30:38.444Z,2.63
2018-05-27T18:33:05.904Z,2.90
2018-05-27T18:35:33.363Z,2.90
2018-05-27T18:38:00.828Z,2.93
2018-05-27T18:40:28.304Z,2.97
2018-05-27T18:42:55.787Z,3.40
2018-05-27T18:45:23.243Z,2.67
2018-05-27T18:47:50.709Z,3.00
2018-05-27T18:50:18.932Z,3.07
2018-05-27T18:52:46.392Z,2.83
2018-05-27T18:55:13.847Z,2.97
2018-05-27T18:57:41.296Z,3.00
2018-05-27T19:00:08.756Z,3.03
2018-05-27T19:02:36.212Z,3.47
2018-05-27T19:05:03.701Z,2.93
2018-05-27T19:07:31.168Z,3.57
2018-05-27T19:09:58.642Z,3.10
2018-05-27T19:12:26.096Z,3.03
2018-05-27T19:14:53.544Z,3.30
2018-05-27T19:17:21.011Z,3.20
2018-05-27T19:19:48.518Z,3.10
2018-05-27T19:22:18.541Z,3.30
2018-05-27T19:24:46.004Z,2.80
2018-05-27T19:27:13.453Z,3.60
2018-05-27T19:29:40.960Z,3.13
2018-05-27T19:32:08.423Z,3.33
2018-05-27T19:34:35.868Z,3.00
2018-05-27T19:37:03.325Z,3.50
2018-05-27T19:39:30.787Z,3.30
2018-05-27T19:41:58.239Z,2.70
2018-05-27T19:44:25.687Z,2.93
2018-05-27T19:46:53.557Z,3.10
2018-05-27T19:49:21.031Z,3.03
2018-05-27T19:51:49.975Z,3.30
2018-05-27T19:54:18.219Z,3.10
2018-05-27T19:56:46.450Z,3.10
2018-05-27T19:59:13.924Z,4.00
2018-05-27T20:01:41.380Z,4.60
2018-05-27T20:04:08.836Z,5.27
2018-05-27T20:06:36.285Z,5.40
2018-05-27T20:09:03.803Z,4.90
2018-05-27T20:11:31.247Z,5.40
2018-05-27T20:13:58.714Z,5.20
2018-05-27T20:16:26.160Z,4.90
2018-05-27T20:18:54.384Z,5.37
2018-05-27T20:21:21.841Z,6.03
2018-05-27T20:23:49.301Z,6.03
2018-05-27T20:26:17.516Z,5.80
2018-05-27T20:28:45.746Z,6.10
2018-05-27T20:31:13.976Z,5.87
2018-05-27T20:33:42.191Z,5.60
2018-05-27T20:36:09.652Z,6.03
2018-05-27T20:38:37.100Z,6.00
2018-05-27T20:41:04.569Z,5.80
2018-05-27T20:43:32.031Z,6.47
2018-05-27T20:45:59.493Z,5.73
2018-05-27T20:48:26.955Z,5.77
2018-05-27T20:50:54.412Z,6.17
2018-05-27T20:53:21.871Z,5.63
2018-05-27T20:55:49.424Z,5.40
2018-05-27T20:58:17.632Z,5.50
2018-05-27T21:00:45.092Z,5.67
2018-05-27T21:03:13.320Z,5.53
2018-05-27T21:05:40.784Z,5.60
2018-05-27T21:08:08.231Z,5.07
2018-05-27T21:10:35.715Z,5.50
2018-05-27T21:13:03.215Z,5.07
2018-05-27T21:15:30.638Z,4.80
2018-05-27T21:17:58.099Z,5.23
2018-05-27T21:20:27.416Z,5.47
2018-05-27T21:22:54.876Z,5.13
2018-05-27T21:25:23.328Z,5.20
2018-05-27T21:27:54.335Z,5.17
2018-05-27T21:30:25.868Z,5.00
2018-05-27T21:32:56.711Z,5.10
2018-05-27T21:35:24.222Z,4.60
2018-05-27T21:37:51.683Z,5.07
2018-05-27T21:40:19.136Z,4.83
2018-05-27T21:42:46.580Z,5.07
2018-05-27T21:45:14.040Z,5.33
2018-05-27T21:47:41.493Z,6.30
2018-05-27T21:50:09.044Z,7.03
2018-05-27T21:52:36.512Z,8.40
2018-05-27T21:55:03.979Z,8.23
2018-05-27T21:57:32.578Z,8.40
2018-05-27T22:00:00.020Z,9.80
2018-05-27T22:02:28.247Z,9.63
2018-05-27T22:04:56.471Z,8.20
2018-05-27T22:07:24.701Z,9.23
2018-05-27T22:09:52.156Z,10.10
2018-05-27T22:12:20.387Z,10.07
2018-05-27T22:14:48.617Z,9.90
2018-05-27T22:17:17.619Z,9.97
2018-05-27T22:19:45.430Z,9.83
2018-05-27T22:22:12.879Z,10.70
2018-05-27T22:24:40.336Z,10.70
2018-05-27T22:27:08.780Z,9.27
2018-05-27T22:29:37.149Z,10.10
2018-05-27T22:32:05.422Z,10.30
2018-05-27T22:34:32.918Z,9.50
2018-05-27T22:37:03.677Z,9.13
2018-05-27T22:39:31.129Z,10.63
2018-05-27T22:41:58.604Z,9.93
2018-05-27T22:44:26.058Z,9.47
2018-05-27T22:46:53.522Z,11.33
2018-05-27T22:49:21.863Z,9.90
2018-05-27T22:51:49.440Z,9.90
2018-05-27T22:54:16.892Z,9.97
2018-05-27T22:56:44.375Z,10.23
2018-05-27T22:59:13.700Z,9.70
2018-05-27T23:01:41.928Z,9.30
2018-05-27T23:04:09.375Z,9.90
2018-05-27T23:06:37.603Z,10.10
2018-05-27T23:09:05.065Z,10.60
2018-05-27T23:11:32.533Z,10.30
2018-05-27T23:14:00.000Z,11.10
2018-05-27T23:16:27.456Z,9.90
2018-05-27T23:18:54.930Z,9.83
2018-05-27T23:21:23.169Z,10.43
2018-05-27T23:23:50.624Z,9.70
2018-05-27T23:26:18.860Z,10.63
2018-05-27T23:28:46.312Z,9.60
2018-05-27T23:31:13.793Z,10.60
2018-05-27T23:33:41.288Z,10.77
2018-05-27T23:36:08.781Z,10.27
2018-05-27T23:38:36.245Z,9.57
2018-05-27T23:41:03.700Z,11.57
2018-05-27T23:43:31.174Z,10.70
2018-05-27T23:45:58.629Z,9.90
2018-05-27T23:48:26.088Z,10.60
2018-05-27T23:50:53.539Z,11.10
2018-05-27T23:53:21.012Z,10.47
2018-05-27T23:55:48.475Z,10.73
2018-05-27T23:58:15.948Z,10.73
